Achico, Argentina
Current Conditions -  °F | °C
As of 8:00 PM on Tuesday 21 Oct 2014 (Local Time) from SAZS Reporting Station
Broken Clouds Broken Clouds  
Wind Chill: 55°   Ceiling: 20000
Heat Index: 55°   Visibility: 6mi
Dew Point: 41°   Wind: 17mph
Humidity: 58%   Direction: 320°NW
Pressure: 29.94"   Gusts: NA
Location:  40.17°S, 70.28°W
Report Text: SAZS 212300Z 32015KT 9999 FEW030 FEW100BKN200 13/05 Q1014
Loading
Personal Weather Stations






























Interactive Weather Map
Tropical Storm Tracking
New forecast layout! Learn more

10-Day Weather Forecast

Advertisements
Track Severe Weather on mobile